sensor_id;sensor_type;location;lat;lon;timestamp;pressure;altitude;pressure_sealevel;temperature;humidity
41234;BME280;26968;42.686;23.352;2024-03-29T00:01:17;94953.97;;;12.53;44.33
41234;BME280;26968;42.686;23.352;2024-03-29T00:03:42;94952.41;;;12.52;44.13
41234;BME280;26968;42.686;23.352;2024-03-29T00:06:08;94943.84;;;12.38;44.04
41234;BME280;26968;42.686;23.352;2024-03-29T00:08:34;94959.59;;;12.50;43.37
41234;BME280;26968;42.686;23.352;2024-03-29T00:10:59;94914.78;;;12.23;44.04
41234;BME280;26968;42.686;23.352;2024-03-29T00:13:25;94958.81;;;12.43;43.66
41234;BME280;26968;42.686;23.352;2024-03-29T00:15:50;94959.22;;;12.46;43.57
41234;BME280;26968;42.686;23.352;2024-03-29T00:18:16;94973.97;;;12.52;43.32
41234;BME280;26968;42.686;23.352;2024-03-29T00:20:42;94973.78;;;12.47;43.97
41234;BME280;26968;42.686;23.352;2024-03-29T00:23:07;94957.22;;;12.42;43.49
41234;BME280;26968;42.686;23.352;2024-03-29T00:25:33;94948.44;;;12.49;43.00
41234;BME280;26968;42.686;23.352;2024-03-29T00:27:59;94978.94;;;12.54;43.39
41234;BME280;26968;42.686;23.352;2024-03-29T00:30:26;94965.59;;;12.50;43.43
41234;BME280;26968;42.686;23.352;2024-03-29T00:32:52;94982.31;;;12.61;42.64
41234;BME280;26968;42.686;23.352;2024-03-29T00:35:17;94988.91;;;12.63;42.57
41234;BME280;26968;42.686;23.352;2024-03-29T00:37:44;94960.34;;;12.63;43.10
41234;BME280;26968;42.686;23.352;2024-03-29T00:40:10;94980.69;;;12.66;42.78
41234;BME280;26968;42.686;23.352;2024-03-29T00:42:36;94993.25;;;12.69;42.51
41234;BME280;26968;42.686;23.352;2024-03-29T00:45:01;94993.94;;;12.52;43.50
41234;BME280;26968;42.686;23.352;2024-03-29T00:47:27;94992.28;;;12.57;42.47
41234;BME280;26968;42.686;23.352;2024-03-29T00:49:53;94983.94;;;12.49;43.44
41234;BME280;26968;42.686;23.352;2024-03-29T00:52:18;94990.53;;;12.51;43.16
41234;BME280;26968;42.686;23.352;2024-03-29T00:54:44;94992.34;;;12.44;43.20
41234;BME280;26968;42.686;23.352;2024-03-29T00:57:09;94981.19;;;12.37;43.54
41234;BME280;26968;42.686;23.352;2024-03-29T00:59:38;94987.94;;;12.38;43.14
41234;BME280;26968;42.686;23.352;2024-03-29T01:02:04;94989.53;;;12.39;43.41
41234;BME280;26968;42.686;23.352;2024-03-29T01:04:30;94991.94;;;12.47;43.79
41234;BME280;26968;42.686;23.352;2024-03-29T01:06:55;94986.94;;;12.39;42.85
41234;BME280;26968;42.686;23.352;2024-03-29T01:09:21;95006.41;;;12.68;43.37
41234;BME280;26968;42.686;23.352;2024-03-29T01:11:50;95004.25;;;12.65;42.55
41234;BME280;26968;42.686;23.352;2024-03-29T01:14:15;94987.09;;;12.64;42.50
41234;BME280;26968;42.686;23.352;2024-03-29T01:16:41;95004.81;;;12.80;43.08
41234;BME280;26968;42.686;23.352;2024-03-29T01:19:06;95007.34;;;12.87;42.52
41234;BME280;26968;42.686;23.352;2024-03-29T01:21:35;95014.00;;;12.83;42.53
41234;BME280;26968;42.686;23.352;2024-03-29T01:24:02;95009.38;;;12.85;42.75
41234;BME280;26968;42.686;23.352;2024-03-29T01:26:28;95006.16;;;12.89;42.69
41234;BME280;26968;42.686;23.352;2024-03-29T01:28:53;95006.34;;;12.88;43.14
41234;BME280;26968;42.686;23.352;2024-03-29T01:31:19;95012.00;;;12.78;43.14
41234;BME280;26968;42.686;23.352;2024-03-29T01:33:44;95013.78;;;12.78;43.03
41234;BME280;26968;42.686;23.352;2024-03-29T01:36:10;95012.59;;;12.74;43.42
41234;BME280;26968;42.686;23.352;2024-03-29T01:38:35;95023.78;;;12.81;43.44
41234;BME280;26968;42.686;23.352;2024-03-29T01:41:01;95018.19;;;12.71;44.51
41234;BME280;26968;42.686;23.352;2024-03-29T01:43:27;95021.00;;;12.69;44.70
41234;BME280;26968;42.686;23.352;2024-03-29T01:45:54;95006.66;;;12.53;44.27
41234;BME280;26968;42.686;23.352;2024-03-29T01:48:22;95022.06;;;12.42;44.82
41234;BME280;26968;42.686;23.352;2024-03-29T01:50:48;95031.31;;;11.91;45.92
41234;BME280;26968;42.686;23.352;2024-03-29T01:53:15;95046.47;;;12.21;44.82
41234;BME280;26968;42.686;23.352;2024-03-29T01:55:42;95056.63;;;12.36;44.67
41234;BME280;26968;42.686;23.352;2024-03-29T01:58:08;95053.81;;;12.44;43.70
41234;BME280;26968;42.686;23.352;2024-03-29T02:00:38;95046.25;;;12.36;43.58
41234;BME280;26968;42.686;23.352;2024-03-29T02:03:05;95059.59;;;12.39;45.07
41234;BME280;26968;42.686;23.352;2024-03-29T02:05:39;95073.75;;;12.50;44.53
41234;BME280;26968;42.686;23.352;2024-03-29T02:08:06;95071.75;;;12.45;44.99
41234;BME280;26968;42.686;23.352;2024-03-29T02:10:32;95086.75;;;12.30;45.77
41234;BME280;26968;42.686;23.352;2024-03-29T02:13:01;95096.53;;;12.15;46.63
41234;BME280;26968;42.686;23.352;2024-03-29T02:15:29;95099.31;;;12.13;46.50
41234;BME280;26968;42.686;23.352;2024-03-29T02:17:54;95086.53;;;12.12;45.66
41234;BME280;26968;42.686;23.352;2024-03-29T02:20:20;95125.66;;;12.17;46.11
41234;BME280;26968;42.686;23.352;2024-03-29T02:23:14;95117.28;;;12.21;46.36
41234;BME280;26968;42.686;23.352;2024-03-29T02:25:41;95122.88;;;12.18;45.07
41234;BME280;26968;42.686;23.352;2024-03-29T02:28:07;95117.25;;;11.95;45.49
41234;BME280;26968;42.686;23.352;2024-03-29T02:30:32;95136.38;;;11.87;45.80
41234;BME280;26968;42.686;23.352;2024-03-29T02:33:01;95125.81;;;11.76;46.25
41234;BME280;26968;42.686;23.352;2024-03-29T02:35:28;95136.78;;;11.84;46.07
41234;BME280;26968;42.686;23.352;2024-03-29T02:37:54;95139.09;;;11.66;46.39
41234;BME280;26968;42.686;23.352;2024-03-29T02:40:20;95148.50;;;11.74;46.46
41234;BME280;26968;42.686;23.352;2024-03-29T02:42:49;95134.94;;;11.72;46.19
41234;BME280;26968;42.686;23.352;2024-03-29T02:45:15;95149.13;;;11.82;46.29
41234;BME280;26968;42.686;23.352;2024-03-29T02:47:41;95163.31;;;11.86;46.27
41234;BME280;26968;42.686;23.352;2024-03-29T02:50:09;95153.31;;;11.83;46.41
41234;BME280;26968;42.686;23.352;2024-03-29T02:52:35;95148.34;;;11.82;46.59
41234;BME280;26968;42.686;23.352;2024-03-29T02:55:00;95160.31;;;11.89;45.92
41234;BME280;26968;42.686;23.352;2024-03-29T02:57:26;95154.50;;;11.81;46.23
41234;BME280;26968;42.686;23.352;2024-03-29T02:59:51;95141.91;;;11.71;46.29
41234;BME280;26968;42.686;23.352;2024-03-29T03:02:18;95155.88;;;11.77;47.11
41234;BME280;26968;42.686;23.352;2024-03-29T03:04:43;95155.13;;;11.83;46.93
41234;BME280;26968;42.686;23.352;2024-03-29T03:07:09;95165.00;;;11.66;47.02
41234;BME280;26968;42.686;23.352;2024-03-29T03:09:53;95175.38;;;11.66;47.46
41234;BME280;26968;42.686;23.352;2024-03-29T03:12:37;95160.19;;;11.63;47.33
41234;BME280;26968;42.686;23.352;2024-03-29T03:15:03;95176.50;;;11.50;47.77
41234;BME280;26968;42.686;23.352;2024-03-29T03:17:29;95167.28;;;11.35;48.07
41234;BME280;26968;42.686;23.352;2024-03-29T03:19:54;95180.88;;;11.50;47.88
41234;BME280;26968;42.686;23.352;2024-03-29T03:22:20;95179.00;;;11.31;47.58
41234;BME280;26968;42.686;23.352;2024-03-29T03:24:45;95197.06;;;11.58;47.45
41234;BME280;26968;42.686;23.352;2024-03-29T03:27:11;95179.28;;;11.49;47.52
41234;BME280;26968;42.686;23.352;2024-03-29T03:29:37;95191.28;;;11.63;47.56
41234;BME280;26968;42.686;23.352;2024-03-29T03:32:03;95199.25;;;11.61;47.62
41234;BME280;26968;42.686;23.352;2024-03-29T03:34:29;95200.66;;;11.64;47.83
41234;BME280;26968;42.686;23.352;2024-03-29T03:36:55;95192.09;;;11.57;47.35
41234;BME280;26968;42.686;23.352;2024-03-29T03:39:21;95201.22;;;11.53;49.09
41234;BME280;26968;42.686;23.352;2024-03-29T03:41:47;95222.13;;;11.45;49.60
41234;BME280;26968;42.686;23.352;2024-03-29T03:44:13;95200.44;;;11.52;47.40
41234;BME280;26968;42.686;23.352;2024-03-29T03:46:38;95217.53;;;11.40;50.32
41234;BME280;26968;42.686;23.352;2024-03-29T03:49:04;95229.69;;;11.46;48.39
41234;BME280;26968;42.686;23.352;2024-03-29T03:51:30;95188.34;;;11.25;49.67
41234;BME280;26968;42.686;23.352;2024-03-29T03:53:56;95235.91;;;11.52;48.58
41234;BME280;26968;42.686;23.352;2024-03-29T03:56:21;95227.06;;;11.40;48.84
41234;BME280;26968;42.686;23.352;2024-03-29T03:58:47;95235.09;;;11.51;47.83
41234;BME280;26968;42.686;23.352;2024-03-29T04:01:12;95237.91;;;11.56;48.13
41234;BME280;26968;42.686;23.352;2024-03-29T04:03:38;95231.94;;;11.56;47.67
41234;BME280;26968;42.686;23.352;2024-03-29T04:06:05;95229.56;;;11.61;47.61
41234;BME280;26968;42.686;23.352;2024-03-29T04:08:31;95244.47;;;11.52;47.21
41234;BME280;26968;42.686;23.352;2024-03-29T04:10:57;95226.50;;;11.44;47.75
41234;BME280;26968;42.686;23.352;2024-03-29T04:13:23;95256.91;;;11.70;48.43
41234;BME280;26968;42.686;23.352;2024-03-29T04:15:48;95249.53;;;11.67;48.26
41234;BME280;26968;42.686;23.352;2024-03-29T04:18:14;95263.94;;;11.42;49.48
41234;BME280;26968;42.686;23.352;2024-03-29T04:20:39;95269.38;;;11.19;50.63
41234;BME280;26968;42.686;23.352;2024-03-29T04:23:06;95266.16;;;11.10;51.07
41234;BME280;26968;42.686;23.352;2024-03-29T04:25:31;95286.00;;;11.03;51.68
41234;BME280;26968;42.686;23.352;2024-03-29T04:27:58;95283.56;;;10.95;51.63
41234;BME280;26968;42.686;23.352;2024-03-29T04:30:25;95280.59;;;10.98;51.02
41234;BME280;26968;42.686;23.352;2024-03-29T04:32:51;95283.03;;;11.06;50.81
41234;BME280;26968;42.686;23.352;2024-03-29T04:35:16;95291.84;;;11.12;50.89
41234;BME280;26968;42.686;23.352;2024-03-29T04:37:42;95294.84;;;11.15;50.85
41234;BME280;26968;42.686;23.352;2024-03-29T04:40:08;95304.34;;;10.80;52.31
41234;BME280;26968;42.686;23.352;2024-03-29T04:42:33;95261.94;;;10.53;51.91
41234;BME280;26968;42.686;23.352;2024-03-29T04:44:59;95271.41;;;10.68;51.82
41234;BME280;26968;42.686;23.352;2024-03-29T04:47:26;95324.81;;;11.03;51.73
41234;BME280;26968;42.686;23.352;2024-03-29T04:49:51;95289.53;;;10.74;52.33
41234;BME280;26968;42.686;23.352;2024-03-29T04:52:17;95307.47;;;10.76;52.46
41234;BME280;26968;42.686;23.352;2024-03-29T04:54:42;95309.31;;;10.61;53.42
41234;BME280;26968;42.686;23.352;2024-03-29T04:57:09;95324.97;;;10.74;52.77
41234;BME280;26968;42.686;23.352;2024-03-29T04:59:35;95341.84;;;10.91;53.14
41234;BME280;26968;42.686;23.352;2024-03-29T05:02:01;95340.78;;;11.07;52.64
41234;BME280;26968;42.686;23.352;2024-03-29T05:04:26;95319.47;;;11.05;52.16
41234;BME280;26968;42.686;23.352;2024-03-29T05:06:56;95343.66;;;11.18;52.43
41234;BME280;26968;42.686;23.352;2024-03-29T05:09:23;95338.13;;;11.21;52.34
41234;BME280;26968;42.686;23.352;2024-03-29T05:11:48;95345.75;;;11.30;51.99
41234;BME280;26968;42.686;23.352;2024-03-29T05:14:19;95345.41;;;11.39;51.60
41234;BME280;26968;42.686;23.352;2024-03-29T05:16:46;95352.47;;;11.52;51.55
41234;BME280;26968;42.686;23.352;2024-03-29T05:19:13;95351.31;;;11.61;51.53
41234;BME280;26968;42.686;23.352;2024-03-29T05:21:41;95339.94;;;11.55;51.23
41234;BME280;26968;42.686;23.352;2024-03-29T05:24:08;95368.59;;;11.75;50.94
41234;BME280;26968;42.686;23.352;2024-03-29T05:26:34;95374.25;;;11.85;50.13
41234;BME280;26968;42.686;23.352;2024-03-29T05:29:00;95364.50;;;11.87;49.94
41234;BME280;26968;42.686;23.352;2024-03-29T05:31:26;95357.16;;;11.97;49.97
41234;BME280;26968;42.686;23.352;2024-03-29T05:33:52;95362.19;;;12.06;50.33
41234;BME280;26968;42.686;23.352;2024-03-29T05:36:17;95370.16;;;12.04;49.58
41234;BME280;26968;42.686;23.352;2024-03-29T05:38:44;95380.19;;;12.14;49.58
41234;BME280;26968;42.686;23.352;2024-03-29T05:41:10;95376.66;;;12.28;49.22
41234;BME280;26968;42.686;23.352;2024-03-29T05:43:35;95373.06;;;12.29;47.60
41234;BME280;26968;42.686;23.352;2024-03-29T05:46:02;95369.91;;;12.40;47.52
41234;BME280;26968;42.686;23.352;2024-03-29T05:48:29;95350.75;;;12.41;47.08
41234;BME280;26968;42.686;23.352;2024-03-29T05:50:54;95355.16;;;12.47;46.46
41234;BME280;26968;42.686;23.352;2024-03-29T05:53:20;95368.41;;;12.65;46.07
41234;BME280;26968;42.686;23.352;2024-03-29T05:55:46;95372.38;;;12.68;46.48
41234;BME280;26968;42.686;23.352;2024-03-29T05:58:11;95362.78;;;12.68;46.82
41234;BME280;26968;42.686;23.352;2024-03-29T06:00:42;95379.19;;;12.76;46.48
41234;BME280;26968;42.686;23.352;2024-03-29T06:03:08;95379.59;;;12.73;46.51
41234;BME280;26968;42.686;23.352;2024-03-29T06:05:33;95377.97;;;12.72;46.64
41234;BME280;26968;42.686;23.352;2024-03-29T06:08:07;95333.19;;;12.43;45.94
41234;BME280;26968;42.686;23.352;2024-03-29T06:10:52;95365.81;;;12.79;45.12
41234;BME280;26968;42.686;23.352;2024-03-29T06:13:18;95390.44;;;12.96;45.75
41234;BME280;26968;42.686;23.352;2024-03-29T06:16:02;95372.03;;;12.91;46.16
41234;BME280;26968;42.686;23.352;2024-03-29T06:18:46;95370.84;;;12.93;45.66
41234;BME280;26968;42.686;23.352;2024-03-29T06:21:12;95395.63;;;13.09;44.45
41234;BME280;26968;42.686;23.352;2024-03-29T06:23:37;95385.84;;;13.11;44.58
41234;BME280;26968;42.686;23.352;2024-03-29T06:26:03;95381.84;;;13.09;44.66
41234;BME280;26968;42.686;23.352;2024-03-29T06:28:29;95394.06;;;13.15;44.14
41234;BME280;26968;42.686;23.352;2024-03-29T06:31:00;95380.47;;;13.13;43.91
41234;BME280;26968;42.686;23.352;2024-03-29T06:33:27;95390.09;;;13.38;45.09
41234;BME280;26968;42.686;23.352;2024-03-29T06:35:56;95385.09;;;13.44;44.47
41234;BME280;26968;42.686;23.352;2024-03-29T06:38:40;95365.69;;;13.33;43.34
41234;BME280;26968;42.686;23.352;2024-03-29T06:41:08;95395.50;;;13.57;43.12
41234;BME280;26968;42.686;23.352;2024-03-29T06:43:34;95397.47;;;13.68;43.96
41234;BME280;26968;42.686;23.352;2024-03-29T06:45:59;95403.28;;;13.70;43.50
41234;BME280;26968;42.686;23.352;2024-03-29T06:48:28;95388.66;;;13.69;42.31
41234;BME280;26968;42.686;23.352;2024-03-29T06:50:53;95413.66;;;13.77;43.15
41234;BME280;26968;42.686;23.352;2024-03-29T06:53:19;95403.44;;;13.75;43.07
41234;BME280;26968;42.686;23.352;2024-03-29T06:55:45;95397.84;;;13.85;43.22
41234;BME280;26968;42.686;23.352;2024-03-29T06:58:11;95407.44;;;13.97;42.87
41234;BME280;26968;42.686;23.352;2024-03-29T07:00:36;95388.81;;;14.00;42.95
41234;BME280;26968;42.686;23.352;2024-03-29T07:03:02;95409.59;;;14.14;43.10
41234;BME280;26968;42.686;23.352;2024-03-29T07:05:27;95404.97;;;14.16;42.71
41234;BME280;26968;42.686;23.352;2024-03-29T07:07:53;95385.97;;;14.08;41.83
41234;BME280;26968;42.686;23.352;2024-03-29T07:10:19;95383.97;;;14.11;41.38
41234;BME280;26968;42.686;23.352;2024-03-29T07:12:44;95420.75;;;14.34;42.14
41234;BME280;26968;42.686;23.352;2024-03-29T07:15:10;95415.16;;;14.30;42.37
41234;BME280;26968;42.686;23.352;2024-03-29T07:17:36;95411.94;;;14.35;42.49
41234;BME280;26968;42.686;23.352;2024-03-29T07:20:01;95425.69;;;14.55;41.23
41234;BME280;26968;42.686;23.352;2024-03-29T07:22:36;95406.31;;;14.51;41.14
41234;BME280;26968;42.686;23.352;2024-03-29T07:25:05;95408.66;;;14.59;41.02
41234;BME280;26968;42.686;23.352;2024-03-29T07:27:31;95412.28;;;14.58;41.82
41234;BME280;26968;42.686;23.352;2024-03-29T07:30:01;95425.41;;;14.76;40.65
41234;BME280;26968;42.686;23.352;2024-03-29T07:32:29;95418.00;;;14.80;40.63
41234;BME280;26968;42.686;23.352;2024-03-29T07:34:57;95421.75;;;14.84;40.97
41234;BME280;26968;42.686;23.352;2024-03-29T07:37:26;95424.78;;;14.81;41.28
41234;BME280;26968;42.686;23.352;2024-03-29T07:39:52;95421.31;;;14.94;40.33
41234;BME280;26968;42.686;23.352;2024-03-29T07:42:18;95416.13;;;14.87;40.35
41234;BME280;26968;42.686;23.352;2024-03-29T07:44:45;95364.59;;;14.58;40.03
41234;BME280;26968;42.686;23.352;2024-03-29T07:47:11;95404.91;;;14.87;39.77
41234;BME280;26968;42.686;23.352;2024-03-29T07:49:38;95409.22;;;15.06;39.84
41234;BME280;26968;42.686;23.352;2024-03-29T07:52:04;95385.66;;;14.94;39.82
41234;BME280;26968;42.686;23.352;2024-03-29T07:54:31;95397.00;;;15.06;39.69
41234;BME280;26968;42.686;23.352;2024-03-29T07:56:57;95423.13;;;15.25;39.24
41234;BME280;26968;42.686;23.352;2024-03-29T07:59:22;95414.09;;;15.27;39.44
41234;BME280;26968;42.686;23.352;2024-03-29T08:01:48;95418.06;;;15.30;39.39
41234;BME280;26968;42.686;23.352;2024-03-29T08:04:13;95416.66;;;15.34;39.43
41234;BME280;26968;42.686;23.352;2024-03-29T08:06:39;95418.53;;;15.52;39.18
41234;BME280;26968;42.686;23.352;2024-03-29T08:09:04;95402.72;;;15.46;38.36
41234;BME280;26968;42.686;23.352;2024-03-29T08:11:31;95404.16;;;15.42;38.77
41234;BME280;26968;42.686;23.352;2024-03-29T08:13:57;95399.16;;;15.41;39.15
41234;BME280;26968;42.686;23.352;2024-03-29T08:16:22;95403.09;;;15.50;39.73
41234;BME280;26968;42.686;23.352;2024-03-29T08:18:48;95397.41;;;15.60;39.80
41234;BME280;26968;42.686;23.352;2024-03-29T08:21:14;95390.84;;;15.57;38.98
41234;BME280;26968;42.686;23.352;2024-03-29T08:23:40;95396.44;;;15.79;39.09
41234;BME280;26968;42.686;23.352;2024-03-29T08:26:07;95389.78;;;15.83;38.95
41234;BME280;26968;42.686;23.352;2024-03-29T08:28:33;95395.25;;;16.00;38.63
41234;BME280;26968;42.686;23.352;2024-03-29T08:31:03;95380.69;;;16.10;38.36
41234;BME280;26968;42.686;23.352;2024-03-29T08:33:29;95381.75;;;16.21;38.18
41234;BME280;26968;42.686;23.352;2024-03-29T08:35:56;95382.34;;;16.23;37.71
41234;BME280;26968;42.686;23.352;2024-03-29T08:38:22;95373.38;;;16.19;37.12
41234;BME280;26968;42.686;23.352;2024-03-29T08:40:48;95363.38;;;16.16;37.69
41234;BME280;26968;42.686;23.352;2024-03-29T08:43:17;95327.03;;;15.96;37.66
41234;BME280;26968;42.686;23.352;2024-03-29T08:45:45;95370.47;;;16.27;37.48
41234;BME280;26968;42.686;23.352;2024-03-29T08:48:11;95368.00;;;16.32;37.07
41234;BME280;26968;42.686;23.352;2024-03-29T08:50:37;95367.00;;;16.33;37.67
41234;BME280;26968;42.686;23.352;2024-03-29T08:53:03;95365.94;;;16.52;36.71
41234;BME280;26968;42.686;23.352;2024-03-29T08:55:31;95370.50;;;16.57;36.71
41234;BME280;26968;42.686;23.352;2024-03-29T08:58:00;95358.47;;;16.56;37.42
41234;BME280;26968;42.686;23.352;2024-03-29T09:00:27;95352.53;;;16.49;37.46
41234;BME280;26968;42.686;23.352;2024-03-29T09:02:53;95345.63;;;16.54;37.56
41234;BME280;26968;42.686;23.352;2024-03-29T09:05:19;95342.78;;;16.74;36.42
41234;BME280;26968;42.686;23.352;2024-03-29T09:07:44;95349.72;;;16.80;36.60
41234;BME280;26968;42.686;23.352;2024-03-29T09:10:13;95344.97;;;16.77;36.55
41234;BME280;26968;42.686;23.352;2024-03-29T09:12:38;95345.66;;;16.84;35.91
41234;BME280;26968;42.686;23.352;2024-03-29T09:15:05;95341.72;;;16.94;35.82
41234;BME280;26968;42.686;23.352;2024-03-29T09:17:44;95336.16;;;17.02;33.76
41234;BME280;26968;42.686;23.352;2024-03-29T09:20:12;95336.66;;;17.22;33.42
41234;BME280;26968;42.686;23.352;2024-03-29T09:22:38;95323.69;;;17.27;32.15
41234;BME280;26968;42.686;23.352;2024-03-29T09:25:04;95342.13;;;17.32;32.34
41234;BME280;26968;42.686;23.352;2024-03-29T09:27:31;95330.84;;;17.20;32.20
41234;BME280;26968;42.686;23.352;2024-03-29T09:30:02;95297.09;;;17.07;33.10
41234;BME280;26968;42.686;23.352;2024-03-29T09:32:27;95311.53;;;17.33;31.70
41234;BME280;26968;42.686;23.352;2024-03-29T09:34:53;95287.88;;;17.28;32.14
41234;BME280;26968;42.686;23.352;2024-03-29T09:37:19;95308.03;;;17.50;32.15
41234;BME280;26968;42.686;23.352;2024-03-29T09:39:45;95287.44;;;17.54;32.35
41234;BME280;26968;42.686;23.352;2024-03-29T09:42:15;95292.19;;;17.57;32.57
41234;BME280;26968;42.686;23.352;2024-03-29T09:44:44;95290.75;;;17.49;32.51
41234;BME280;26968;42.686;23.352;2024-03-29T09:47:14;95279.03;;;17.52;32.34
41234;BME280;26968;42.686;23.352;2024-03-29T09:49:41;95278.66;;;17.60;33.19
41234;BME280;26968;42.686;23.352;2024-03-29T09:52:10;95282.66;;;17.63;32.28
41234;BME280;26968;42.686;23.352;2024-03-29T09:54:36;95287.59;;;17.71;32.72
41234;BME280;26968;42.686;23.352;2024-03-29T09:57:01;95282.78;;;17.79;33.68
41234;BME280;26968;42.686;23.352;2024-03-29T09:59:27;95273.69;;;17.82;32.36
41234;BME280;26968;42.686;23.352;2024-03-29T10:01:55;95274.88;;;18.03;32.00
41234;BME280;26968;42.686;23.352;2024-03-29T10:04:23;95270.53;;;18.37;30.41
41234;BME280;26968;42.686;23.352;2024-03-29T10:06:50;95274.66;;;19.06;28.76
41234;BME280;26968;42.686;23.352;2024-03-29T10:09:20;95268.66;;;19.61;28.66
41234;BME280;26968;42.686;23.352;2024-03-29T10:11:46;95281.03;;;20.48;27.24
41234;BME280;26968;42.686;23.352;2024-03-29T10:14:12;95281.50;;;21.25;26.03
41234;BME280;26968;42.686;23.352;2024-03-29T10:16:38;95269.38;;;22.08;24.88
41234;BME280;26968;42.686;23.352;2024-03-29T10:19:04;95274.59;;;22.86;23.51
41234;BME280;26968;42.686;23.352;2024-03-29T10:21:32;95256.38;;;23.56;23.98
41234;BME280;26968;42.686;23.352;2024-03-29T10:23:58;95246.81;;;24.44;22.97
41234;BME280;26968;42.686;23.352;2024-03-29T10:26:24;95266.19;;;24.35;21.62
41234;BME280;26968;42.686;23.352;2024-03-29T10:28:50;95257.69;;;24.43;21.13
41234;BME280;26968;42.686;23.352;2024-03-29T10:31:17;95256.75;;;25.07;21.20
41234;BME280;26968;42.686;23.352;2024-03-29T10:33:43;95263.34;;;25.09;20.59
41234;BME280;26968;42.686;23.352;2024-03-29T10:36:14;95269.28;;;24.96;20.93
41234;BME280;26968;42.686;23.352;2024-03-29T10:38:40;95252.47;;;25.74;19.87
41234;BME280;26968;42.686;23.352;2024-03-29T10:41:06;95261.69;;;26.24;19.56
41234;BME280;26968;42.686;23.352;2024-03-29T10:43:33;95245.25;;;26.46;19.97
41234;BME280;26968;42.686;23.352;2024-03-29T10:46:03;95244.25;;;26.60;19.74
41234;BME280;26968;42.686;23.352;2024-03-29T10:48:31;95250.63;;;27.16;19.02
41234;BME280;26968;42.686;23.352;2024-03-29T10:51:01;95244.91;;;27.22;18.50
41234;BME280;26968;42.686;23.352;2024-03-29T10:53:29;95246.66;;;27.13;18.36
41234;BME280;26968;42.686;23.352;2024-03-29T10:55:57;95236.75;;;27.19;18.70
41234;BME280;26968;42.686;23.352;2024-03-29T10:58:30;95215.44;;;26.35;19.67
41234;BME280;26968;42.686;23.352;2024-03-29T11:00:57;95234.22;;;27.27;18.70
41234;BME280;26968;42.686;23.352;2024-03-29T11:06:03;95235.22;;;27.91;18.55
41234;BME280;26968;42.686;23.352;2024-03-29T11:08:33;95215.69;;;27.96;17.98
41234;BME280;26968;42.686;23.352;2024-03-29T11:11:02;95232.16;;;28.25;18.18
41234;BME280;26968;42.686;23.352;2024-03-29T11:16:17;95228.53;;;27.80;18.68
41234;BME280;26968;42.686;23.352;2024-03-29T11:18:44;95223.13;;;27.53;19.04
41234;BME280;26968;42.686;23.352;2024-03-29T11:21:14;95216.09;;;27.89;18.28
41234;BME280;26968;42.686;23.352;2024-03-29T11:23:48;95235.41;;;28.72;17.53
41234;BME280;26968;42.686;23.352;2024-03-29T11:26:16;95227.19;;;29.04;16.88
41234;BME280;26968;42.686;23.352;2024-03-29T11:28:51;95179.94;;;28.02;17.96
41234;BME280;26968;42.686;23.352;2024-03-29T11:31:26;95217.38;;;28.06;18.34
41234;BME280;26968;42.686;23.352;2024-03-29T11:33:52;95225.16;;;27.88;18.12
41234;BME280;26968;42.686;23.352;2024-03-29T11:36:28;95232.03;;;28.17;18.09
41234;BME280;26968;42.686;23.352;2024-03-29T11:38:57;95218.53;;;27.12;19.59
41234;BME280;26968;42.686;23.352;2024-03-29T11:41:24;95224.75;;;27.67;19.62
41234;BME280;26968;42.686;23.352;2024-03-29T11:43:54;95228.53;;;28.21;18.48
41234;BME280;26968;42.686;23.352;2024-03-29T11:46:20;95203.03;;;28.43;18.30
41234;BME280;26968;42.686;23.352;2024-03-29T11:48:46;95232.28;;;29.15;18.72
41234;BME280;26968;42.686;23.352;2024-03-29T11:51:16;95221.41;;;29.02;17.45
41234;BME280;26968;42.686;23.352;2024-03-29T11:53:44;95218.75;;;28.66;18.68
41234;BME280;26968;42.686;23.352;2024-03-29T11:56:10;95206.09;;;28.86;18.00
41234;BME280;26968;42.686;23.352;2024-03-29T11:58:39;95207.25;;;27.94;18.55
41234;BME280;26968;42.686;23.352;2024-03-29T12:01:06;95215.88;;;28.27;18.45
41234;BME280;26968;42.686;23.352;2024-03-29T12:03:38;95192.34;;;28.92;18.27
41234;BME280;26968;42.686;23.352;2024-03-29T12:06:04;95166.75;;;27.97;18.63
41234;BME280;26968;42.686;23.352;2024-03-29T12:08:32;95201.25;;;28.52;19.88
41234;BME280;26968;42.686;23.352;2024-03-29T12:11:00;95195.38;;;28.14;18.88
41234;BME280;26968;42.686;23.352;2024-03-29T12:13:26;95197.28;;;28.63;18.47
41234;BME280;26968;42.686;23.352;2024-03-29T12:15:52;95202.38;;;29.18;17.91
41234;BME280;26968;42.686;23.352;2024-03-29T12:18:22;95205.03;;;28.37;19.23
41234;BME280;26968;42.686;23.352;2024-03-29T12:20:50;95206.63;;;28.38;18.17
41234;BME280;26968;42.686;23.352;2024-03-29T12:23:17;95190.66;;;28.60;18.74
41234;BME280;26968;42.686;23.352;2024-03-29T12:25:43;95196.75;;;28.39;18.67
41234;BME280;26968;42.686;23.352;2024-03-29T12:28:13;95187.34;;;28.77;18.28
41234;BME280;26968;42.686;23.352;2024-03-29T12:30:44;95198.72;;;28.83;20.13
41234;BME280;26968;42.686;23.352;2024-03-29T12:33:14;95189.97;;;29.13;19.09
41234;BME280;26968;42.686;23.352;2024-03-29T12:35:44;95196.22;;;28.86;18.43
41234;BME280;26968;42.686;23.352;2024-03-29T12:38:12;95191.06;;;28.90;18.01
41234;BME280;26968;42.686;23.352;2024-03-29T12:40:38;95193.63;;;29.17;17.64
41234;BME280;26968;42.686;23.352;2024-03-29T12:43:07;95170.34;;;29.31;17.73
41234;BME280;26968;42.686;23.352;2024-03-29T12:45:36;95180.06;;;30.06;16.81
41234;BME280;26968;42.686;23.352;2024-03-29T12:48:10;95192.25;;;29.28;17.05
41234;BME280;26968;42.686;23.352;2024-03-29T12:50:35;95172.50;;;30.00;16.67
41234;BME280;26968;42.686;23.352;2024-03-29T12:53:07;95178.66;;;29.69;16.72
41234;BME280;26968;42.686;23.352;2024-03-29T12:55:32;95182.66;;;29.50;17.03